Allen Park, Michigan
Current Conditions -  °F | °C
As of 11:53 AM on Saturday 25 Oct 2014 (Local Time) from KDTW Reporting Station
Haze Haze  
Wind Chill: 60°   Ceiling: 2000
Heat Index: 60°   Visibility: 6mi
Dew Point: 52°   Wind: 18mph
Humidity: 75%   Direction: 250°WSW
Pressure: 29.81"   Gusts: 28mph
Location:  42.26°N, 83.22°W
Report Text: KDTW 251553Z 25016G24KT 6SM HZ OVC020 16/11 A2981 RMK AO2 SLP095 T01560111
Loading
Personal Weather Stations






























Interactive Weather Map
Tropical Storm Tracking
New forecast layout! Learn more

10-Day Weather Forecast

Advertisements
Track Severe Weather on mobile